sensor_id;sensor_type;location;lat;lon;timestamp;P1;durP1;ratioP1;P2;durP2;ratioP2
24277;SDS011;12394;42.692;23.314;2023-08-20T00:00:15;3.33;;;2.93;;
24277;SDS011;12394;42.692;23.314;2023-08-20T00:02:41;3.90;;;3.00;;
24277;SDS011;12394;42.692;23.314;2023-08-20T00:05:08;4.83;;;3.43;;
24277;SDS011;12394;42.692;23.314;2023-08-20T00:07:34;4.87;;;3.33;;
24277;SDS011;12394;42.692;23.314;2023-08-20T00:10:00;3.27;;;2.83;;
24277;SDS011;12394;42.692;23.314;2023-08-20T00:12:28;5.63;;;3.20;;
24277;SDS011;12394;42.692;23.314;2023-08-20T00:17:35;3.80;;;3.30;;
24277;SDS011;12394;42.692;23.314;2023-08-20T00:20:02;3.83;;;3.10;;
24277;SDS011;12394;42.692;23.314;2023-08-20T00:22:38;3.80;;;3.27;;
24277;SDS011;12394;42.692;23.314;2023-08-20T00:25:05;3.37;;;3.07;;
24277;SDS011;12394;42.692;23.314;2023-08-20T00:27:31;4.63;;;3.30;;
24277;SDS011;12394;42.692;23.314;2023-08-20T00:29:57;3.70;;;3.03;;
24277;SDS011;12394;42.692;23.314;2023-08-20T00:32:22;3.87;;;3.47;;
24277;SDS011;12394;42.692;23.314;2023-08-20T00:34:48;6.30;;;3.43;;
24277;SDS011;12394;42.692;23.314;2023-08-20T00:37:13;3.47;;;3.17;;
24277;SDS011;12394;42.692;23.314;2023-08-20T00:39:39;5.10;;;3.80;;
24277;SDS011;12394;42.692;23.314;2023-08-20T00:42:05;4.43;;;3.50;;
24277;SDS011;12394;42.692;23.314;2023-08-20T00:44:31;6.10;;;3.73;;
24277;SDS011;12394;42.692;23.314;2023-08-20T00:46:56;4.07;;;3.50;;
24277;SDS011;12394;42.692;23.314;2023-08-20T00:49:23;5.20;;;3.60;;
24277;SDS011;12394;42.692;23.314;2023-08-20T00:51:49;4.17;;;3.43;;
24277;SDS011;12394;42.692;23.314;2023-08-20T00:54:15;7.73;;;3.17;;
24277;SDS011;12394;42.692;23.314;2023-08-20T00:56:41;4.43;;;3.50;;
24277;SDS011;12394;42.692;23.314;2023-08-20T00:59:07;4.67;;;3.10;;
24277;SDS011;12394;42.692;23.314;2023-08-20T01:01:33;3.80;;;3.40;;
24277;SDS011;12394;42.692;23.314;2023-08-20T01:03:58;4.57;;;3.67;;
24277;SDS011;12394;42.692;23.314;2023-08-20T01:06:39;3.63;;;3.23;;
24277;SDS011;12394;42.692;23.314;2023-08-20T01:12:08;3.93;;;3.13;;
24277;SDS011;12394;42.692;23.314;2023-08-20T01:14:35;3.33;;;3.03;;
24277;SDS011;12394;42.692;23.314;2023-08-20T01:17:00;4.20;;;3.10;;
24277;SDS011;12394;42.692;23.314;2023-08-20T01:19:26;4.00;;;3.40;;
24277;SDS011;12394;42.692;23.314;2023-08-20T01:27:26;4.27;;;3.47;;
24277;SDS011;12394;42.692;23.314;2023-08-20T01:30:00;4.73;;;3.70;;
24277;SDS011;12394;42.692;23.314;2023-08-20T01:32:26;5.33;;;3.97;;
24277;SDS011;12394;42.692;23.314;2023-08-20T01:34:52;4.73;;;3.70;;
24277;SDS011;12394;42.692;23.314;2023-08-20T01:37:18;3.67;;;3.10;;
24277;SDS011;12394;42.692;23.314;2023-08-20T01:39:44;4.43;;;3.40;;
24277;SDS011;12394;42.692;23.314;2023-08-20T01:42:09;4.63;;;3.63;;
24277;SDS011;12394;42.692;23.314;2023-08-20T01:44:34;4.10;;;3.70;;
24277;SDS011;12394;42.692;23.314;2023-08-20T01:47:00;4.37;;;3.97;;
24277;SDS011;12394;42.692;23.314;2023-08-20T01:49:25;5.53;;;3.63;;
24277;SDS011;12394;42.692;23.314;2023-08-20T01:51:51;6.20;;;4.07;;
24277;SDS011;12394;42.692;23.314;2023-08-20T01:54:16;4.93;;;4.30;;
24277;SDS011;12394;42.692;23.314;2023-08-20T01:56:42;6.97;;;4.20;;
24277;SDS011;12394;42.692;23.314;2023-08-20T01:59:07;4.37;;;3.53;;
24277;SDS011;12394;42.692;23.314;2023-08-20T02:01:33;6.57;;;3.90;;
24277;SDS011;12394;42.692;23.314;2023-08-20T02:03:59;4.43;;;3.87;;
24277;SDS011;12394;42.692;23.314;2023-08-20T02:06:24;4.33;;;3.53;;
24277;SDS011;12394;42.692;23.314;2023-08-20T02:08:50;5.37;;;3.50;;
24277;SDS011;12394;42.692;23.314;2023-08-20T02:11:15;6.77;;;4.10;;
24277;SDS011;12394;42.692;23.314;2023-08-20T02:13:40;4.27;;;3.23;;
24277;SDS011;12394;42.692;23.314;2023-08-20T02:16:06;5.13;;;3.73;;
24277;SDS011;12394;42.692;23.314;2023-08-20T02:18:32;4.73;;;3.53;;
24277;SDS011;12394;42.692;23.314;2023-08-20T02:20:57;3.83;;;3.43;;
24277;SDS011;12394;42.692;23.314;2023-08-20T02:23:23;4.80;;;3.63;;
24277;SDS011;12394;42.692;23.314;2023-08-20T02:25:48;8.57;;;3.80;;
24277;SDS011;12394;42.692;23.314;2023-08-20T02:28:14;5.73;;;4.10;;
24277;SDS011;12394;42.692;23.314;2023-08-20T02:30:43;5.33;;;4.00;;
24277;SDS011;12394;42.692;23.314;2023-08-20T02:33:10;4.10;;;3.37;;
24277;SDS011;12394;42.692;23.314;2023-08-20T02:35:39;4.40;;;4.00;;
24277;SDS011;12394;42.692;23.314;2023-08-20T02:38:05;4.73;;;3.87;;
24277;SDS011;12394;42.692;23.314;2023-08-20T02:40:31;4.73;;;3.53;;
24277;SDS011;12394;42.692;23.314;2023-08-20T02:42:57;6.90;;;4.40;;
24277;SDS011;12394;42.692;23.314;2023-08-20T02:45:23;6.83;;;4.30;;
24277;SDS011;12394;42.692;23.314;2023-08-20T02:47:48;4.77;;;3.80;;
24277;SDS011;12394;42.692;23.314;2023-08-20T02:50:14;5.43;;;4.47;;
24277;SDS011;12394;42.692;23.314;2023-08-20T02:52:41;4.73;;;3.83;;
24277;SDS011;12394;42.692;23.314;2023-08-20T02:55:08;6.03;;;4.07;;
24277;SDS011;12394;42.692;23.314;2023-08-20T02:57:33;4.47;;;3.53;;
24277;SDS011;12394;42.692;23.314;2023-08-20T02:59:59;4.70;;;3.80;;
24277;SDS011;12394;42.692;23.314;2023-08-20T03:02:24;5.97;;;4.03;;
24277;SDS011;12394;42.692;23.314;2023-08-20T03:04:50;6.77;;;4.57;;
24277;SDS011;12394;42.692;23.314;2023-08-20T03:07:15;4.67;;;4.07;;
24277;SDS011;12394;42.692;23.314;2023-08-20T03:09:41;6.07;;;3.70;;
24277;SDS011;12394;42.692;23.314;2023-08-20T03:12:06;3.70;;;3.30;;
24277;SDS011;12394;42.692;23.314;2023-08-20T03:14:32;4.47;;;4.07;;
24277;SDS011;12394;42.692;23.314;2023-08-20T03:16:57;5.07;;;3.60;;
24277;SDS011;12394;42.692;23.314;2023-08-20T03:19:23;4.57;;;3.73;;
24277;SDS011;12394;42.692;23.314;2023-08-20T03:21:48;5.20;;;4.20;;
24277;SDS011;12394;42.692;23.314;2023-08-20T03:24:13;5.97;;;4.40;;
24277;SDS011;12394;42.692;23.314;2023-08-20T03:26:39;5.13;;;3.97;;
24277;SDS011;12394;42.692;23.314;2023-08-20T03:29:04;7.70;;;3.87;;
24277;SDS011;12394;42.692;23.314;2023-08-20T03:31:30;3.67;;;3.37;;
24277;SDS011;12394;42.692;23.314;2023-08-20T03:33:56;6.87;;;4.30;;
24277;SDS011;12394;42.692;23.314;2023-08-20T03:36:21;5.43;;;3.93;;
24277;SDS011;12394;42.692;23.314;2023-08-20T03:38:47;4.23;;;3.70;;
24277;SDS011;12394;42.692;23.314;2023-08-20T03:41:12;4.13;;;3.73;;
24277;SDS011;12394;42.692;23.314;2023-08-20T03:43:38;5.23;;;4.60;;
24277;SDS011;12394;42.692;23.314;2023-08-20T03:46:03;4.77;;;3.83;;
24277;SDS011;12394;42.692;23.314;2023-08-20T03:48:28;5.47;;;4.13;;
24277;SDS011;12394;42.692;23.314;2023-08-20T03:50:54;7.30;;;4.30;;
24277;SDS011;12394;42.692;23.314;2023-08-20T03:53:20;5.63;;;3.80;;
24277;SDS011;12394;42.692;23.314;2023-08-20T03:55:49;5.53;;;4.40;;
24277;SDS011;12394;42.692;23.314;2023-08-20T03:58:15;4.97;;;3.70;;
24277;SDS011;12394;42.692;23.314;2023-08-20T04:00:40;5.73;;;3.63;;
24277;SDS011;12394;42.692;23.314;2023-08-20T04:03:06;6.40;;;4.43;;
24277;SDS011;12394;42.692;23.314;2023-08-20T04:05:35;6.73;;;4.50;;
24277;SDS011;12394;42.692;23.314;2023-08-20T04:08:04;6.17;;;4.63;;
24277;SDS011;12394;42.692;23.314;2023-08-20T04:10:31;6.90;;;3.67;;
24277;SDS011;12394;42.692;23.314;2023-08-20T04:12:57;5.27;;;3.70;;
24277;SDS011;12394;42.692;23.314;2023-08-20T04:15:23;5.37;;;4.03;;
24277;SDS011;12394;42.692;23.314;2023-08-20T04:17:49;5.17;;;4.30;;
24277;SDS011;12394;42.692;23.314;2023-08-20T04:20:14;4.33;;;3.63;;
24277;SDS011;12394;42.692;23.314;2023-08-20T04:22:40;4.97;;;3.83;;
24277;SDS011;12394;42.692;23.314;2023-08-20T04:25:06;5.70;;;4.00;;
24277;SDS011;12394;42.692;23.314;2023-08-20T04:27:32;4.50;;;3.90;;
24277;SDS011;12394;42.692;23.314;2023-08-20T04:29:58;5.60;;;4.30;;
24277;SDS011;12394;42.692;23.314;2023-08-20T04:32:23;5.67;;;3.83;;
24277;SDS011;12394;42.692;23.314;2023-08-20T04:34:49;5.40;;;4.17;;
24277;SDS011;12394;42.692;23.314;2023-08-20T04:37:17;5.00;;;3.90;;
24277;SDS011;12394;42.692;23.314;2023-08-20T04:39:44;4.93;;;3.73;;
24277;SDS011;12394;42.692;23.314;2023-08-20T04:42:09;4.37;;;3.50;;
24277;SDS011;12394;42.692;23.314;2023-08-20T04:44:35;6.13;;;4.17;;
24277;SDS011;12394;42.692;23.314;2023-08-20T04:47:00;5.03;;;4.17;;
24277;SDS011;12394;42.692;23.314;2023-08-20T04:49:26;5.13;;;3.93;;
24277;SDS011;12394;42.692;23.314;2023-08-20T04:51:53;6.93;;;4.17;;
24277;SDS011;12394;42.692;23.314;2023-08-20T04:54:19;5.07;;;3.90;;
24277;SDS011;12394;42.692;23.314;2023-08-20T04:56:44;5.90;;;4.00;;
24277;SDS011;12394;42.692;23.314;2023-08-20T04:59:10;4.73;;;3.80;;
24277;SDS011;12394;42.692;23.314;2023-08-20T05:01:36;5.80;;;4.53;;
24277;SDS011;12394;42.692;23.314;2023-08-20T05:04:03;6.37;;;4.40;;
24277;SDS011;12394;42.692;23.314;2023-08-20T05:06:28;5.00;;;3.60;;
24277;SDS011;12394;42.692;23.314;2023-08-20T05:08:54;5.70;;;4.13;;
24277;SDS011;12394;42.692;23.314;2023-08-20T05:11:19;6.10;;;4.13;;
24277;SDS011;12394;42.692;23.314;2023-08-20T05:13:45;4.97;;;3.93;;
24277;SDS011;12394;42.692;23.314;2023-08-20T05:16:12;5.43;;;4.50;;
24277;SDS011;12394;42.692;23.314;2023-08-20T05:18:38;6.20;;;4.30;;
24277;SDS011;12394;42.692;23.314;2023-08-20T05:21:03;5.87;;;4.57;;
24277;SDS011;12394;42.692;23.314;2023-08-20T05:23:28;5.03;;;3.63;;
24277;SDS011;12394;42.692;23.314;2023-08-20T05:25:54;4.33;;;3.77;;
24277;SDS011;12394;42.692;23.314;2023-08-20T05:28:19;4.80;;;3.80;;
24277;SDS011;12394;42.692;23.314;2023-08-20T05:30:53;4.73;;;3.90;;
24277;SDS011;12394;42.692;23.314;2023-08-20T05:33:20;5.03;;;3.93;;
24277;SDS011;12394;42.692;23.314;2023-08-20T05:35:45;4.97;;;3.47;;
24277;SDS011;12394;42.692;23.314;2023-08-20T05:38:11;5.80;;;4.03;;
24277;SDS011;12394;42.692;23.314;2023-08-20T05:40:36;3.93;;;3.40;;
24277;SDS011;12394;42.692;23.314;2023-08-20T05:43:02;5.67;;;3.80;;
24277;SDS011;12394;42.692;23.314;2023-08-20T05:45:27;5.43;;;4.20;;
24277;SDS011;12394;42.692;23.314;2023-08-20T05:47:52;4.37;;;3.53;;
24277;SDS011;12394;42.692;23.314;2023-08-20T05:50:18;5.93;;;4.20;;
24277;SDS011;12394;42.692;23.314;2023-08-20T05:52:43;6.93;;;3.73;;
24277;SDS011;12394;42.692;23.314;2023-08-20T05:55:09;5.40;;;3.93;;
24277;SDS011;12394;42.692;23.314;2023-08-20T05:57:35;4.70;;;3.63;;
24277;SDS011;12394;42.692;23.314;2023-08-20T06:00:03;4.87;;;3.97;;
24277;SDS011;12394;42.692;23.314;2023-08-20T06:02:29;7.73;;;4.57;;
24277;SDS011;12394;42.692;23.314;2023-08-20T06:04:55;5.17;;;4.07;;
24277;SDS011;12394;42.692;23.314;2023-08-20T06:07:20;5.33;;;4.20;;
24277;SDS011;12394;42.692;23.314;2023-08-20T06:09:46;6.30;;;4.30;;
24277;SDS011;12394;42.692;23.314;2023-08-20T06:12:12;5.70;;;4.23;;
24277;SDS011;12394;42.692;23.314;2023-08-20T06:14:37;6.23;;;4.43;;
24277;SDS011;12394;42.692;23.314;2023-08-20T06:17:03;7.17;;;4.33;;
24277;SDS011;12394;42.692;23.314;2023-08-20T06:19:28;4.80;;;4.30;;
24277;SDS011;12394;42.692;23.314;2023-08-20T06:21:54;5.27;;;4.33;;
24277;SDS011;12394;42.692;23.314;2023-08-20T06:24:19;6.37;;;4.10;;
24277;SDS011;12394;42.692;23.314;2023-08-20T06:26:45;4.80;;;4.30;;
24277;SDS011;12394;42.692;23.314;2023-08-20T06:29:10;8.67;;;4.93;;
24277;SDS011;12394;42.692;23.314;2023-08-20T06:31:36;7.00;;;4.23;;
24277;SDS011;12394;42.692;23.314;2023-08-20T06:34:01;4.90;;;4.40;;
24277;SDS011;12394;42.692;23.314;2023-08-20T06:36:27;5.77;;;4.53;;
24277;SDS011;12394;42.692;23.314;2023-08-20T06:38:52;5.00;;;3.87;;
24277;SDS011;12394;42.692;23.314;2023-08-20T06:41:18;4.60;;;3.43;;
24277;SDS011;12394;42.692;23.314;2023-08-20T06:43:43;4.70;;;3.50;;
24277;SDS011;12394;42.692;23.314;2023-08-20T06:46:09;4.70;;;3.70;;
24277;SDS011;12394;42.692;23.314;2023-08-20T06:48:34;4.17;;;3.77;;
24277;SDS011;12394;42.692;23.314;2023-08-20T06:51:07;4.27;;;3.50;;
24277;SDS011;12394;42.692;23.314;2023-08-20T06:53:35;5.47;;;3.40;;
24277;SDS011;12394;42.692;23.314;2023-08-20T06:56:01;5.17;;;3.73;;
24277;SDS011;12394;42.692;23.314;2023-08-20T06:58:26;5.30;;;3.67;;
24277;SDS011;12394;42.692;23.314;2023-08-20T07:00:51;5.40;;;3.70;;
24277;SDS011;12394;42.692;23.314;2023-08-20T07:03:17;5.90;;;3.73;;
24277;SDS011;12394;42.692;23.314;2023-08-20T07:05:42;4.87;;;3.87;;
24277;SDS011;12394;42.692;23.314;2023-08-20T07:08:08;3.87;;;3.40;;
24277;SDS011;12394;42.692;23.314;2023-08-20T07:10:33;3.60;;;3.17;;
24277;SDS011;12394;42.692;23.314;2023-08-20T07:12:59;4.33;;;3.70;;
24277;SDS011;12394;42.692;23.314;2023-08-20T07:15:24;4.00;;;3.60;;
24277;SDS011;12394;42.692;23.314;2023-08-20T07:17:49;4.47;;;3.50;;
24277;SDS011;12394;42.692;23.314;2023-08-20T07:20:15;4.33;;;3.40;;
24277;SDS011;12394;42.692;23.314;2023-08-20T07:22:40;3.97;;;3.47;;
24277;SDS011;12394;42.692;23.314;2023-08-20T07:25:07;4.00;;;3.30;;
24277;SDS011;12394;42.692;23.314;2023-08-20T07:27:33;3.87;;;3.33;;
24277;SDS011;12394;42.692;23.314;2023-08-20T07:29:58;4.00;;;3.20;;
24277;SDS011;12394;42.692;23.314;2023-08-20T07:32:24;4.67;;;3.30;;
24277;SDS011;12394;42.692;23.314;2023-08-20T07:34:49;6.97;;;3.73;;
24277;SDS011;12394;42.692;23.314;2023-08-20T07:37:15;2.37;;;2.17;;
24277;SDS011;12394;42.692;23.314;2023-08-20T07:39:40;4.67;;;3.70;;
24277;SDS011;12394;42.692;23.314;2023-08-20T07:42:06;3.30;;;3.00;;
24277;SDS011;12394;42.692;23.314;2023-08-20T07:44:31;3.80;;;3.10;;
24277;SDS011;12394;42.692;23.314;2023-08-20T07:46:57;2.87;;;2.53;;
24277;SDS011;12394;42.692;23.314;2023-08-20T07:49:22;3.03;;;2.73;;
24277;SDS011;12394;42.692;23.314;2023-08-20T07:51:48;4.07;;;3.20;;
24277;SDS011;12394;42.692;23.314;2023-08-20T07:54:17;3.43;;;2.83;;
24277;SDS011;12394;42.692;23.314;2023-08-20T07:56:42;2.93;;;2.70;;
24277;SDS011;12394;42.692;23.314;2023-08-20T07:59:08;2.77;;;2.57;;
24277;SDS011;12394;42.692;23.314;2023-08-20T08:01:33;3.22;;;2.92;;
24277;SDS011;12394;42.692;23.314;2023-08-20T08:03:58;2.97;;;2.58;;
24277;SDS011;12394;42.692;23.314;2023-08-20T08:06:24;3.42;;;3.13;;
24277;SDS011;12394;42.692;23.314;2023-08-20T08:08:49;3.35;;;3.05;;
24277;SDS011;12394;42.692;23.314;2023-08-20T08:11:15;3.35;;;3.05;;
24277;SDS011;12394;42.692;23.314;2023-08-20T08:13:40;3.50;;;3.05;;
24277;SDS011;12394;42.692;23.314;2023-08-20T08:16:06;3.00;;;2.70;;
24277;SDS011;12394;42.692;23.314;2023-08-20T08:18:31;3.40;;;2.80;;
24277;SDS011;12394;42.692;23.314;2023-08-20T08:20:57;3.30;;;3.00;;
24277;SDS011;12394;42.692;23.314;2023-08-20T08:23:22;2.63;;;2.42;;
24277;SDS011;12394;42.692;23.314;2023-08-20T08:25:47;3.30;;;2.95;;
24277;SDS011;12394;42.692;23.314;2023-08-20T08:28:13;3.00;;;2.80;;
24277;SDS011;12394;42.692;23.314;2023-08-20T08:30:38;3.42;;;2.88;;
24277;SDS011;12394;42.692;23.314;2023-08-20T08:33:05;3.40;;;3.00;;
24277;SDS011;12394;42.692;23.314;2023-08-20T08:35:30;5.13;;;2.63;;
24277;SDS011;12394;42.692;23.314;2023-08-20T08:37:56;4.20;;;2.83;;
24277;SDS011;12394;42.692;23.314;2023-08-20T08:40:22;2.65;;;2.45;;
24277;SDS011;12394;42.692;23.314;2023-08-20T08:42:52;2.92;;;2.70;;
24277;SDS011;12394;42.692;23.314;2023-08-20T08:45:19;2.88;;;2.58;;
24277;SDS011;12394;42.692;23.314;2023-08-20T08:47:45;3.10;;;2.80;;
24277;SDS011;12394;42.692;23.314;2023-08-20T08:50:11;3.17;;;2.88;;
24277;SDS011;12394;42.692;23.314;2023-08-20T08:52:37;3.90;;;3.58;;
24277;SDS011;12394;42.692;23.314;2023-08-20T08:55:04;2.90;;;2.70;;
24277;SDS011;12394;42.692;23.314;2023-08-20T08:57:33;5.38;;;2.72;;
24277;SDS011;12394;42.692;23.314;2023-08-20T08:59:58;2.90;;;2.70;;
24277;SDS011;12394;42.692;23.314;2023-08-20T09:02:24;2.15;;;1.98;;
24277;SDS011;12394;42.692;23.314;2023-08-20T09:04:49;2.83;;;2.63;;
24277;SDS011;12394;42.692;23.314;2023-08-20T09:07:15;2.50;;;2.30;;
24277;SDS011;12394;42.692;23.314;2023-08-20T09:09:44;2.20;;;2.10;;
24277;SDS011;12394;42.692;23.314;2023-08-20T09:12:14;2.70;;;2.38;;
24277;SDS011;12394;42.692;23.314;2023-08-20T09:14:43;3.10;;;2.75;;
24277;SDS011;12394;42.692;23.314;2023-08-20T09:17:11;2.35;;;2.10;;
24277;SDS011;12394;42.692;23.314;2023-08-20T09:19:37;5.10;;;2.50;;
24277;SDS011;12394;42.692;23.314;2023-08-20T09:22:03;3.80;;;2.70;;
24277;SDS011;12394;42.692;23.314;2023-08-20T09:27:07;2.85;;;2.50;;
24277;SDS011;12394;42.692;23.314;2023-08-20T09:29:33;2.42;;;2.22;;
24277;SDS011;12394;42.692;23.314;2023-08-20T09:32:08;2.47;;;2.25;;
24277;SDS011;12394;42.692;23.314;2023-08-20T09:34:43;2.22;;;2.00;;
24277;SDS011;12394;42.692;23.314;2023-08-20T09:37:12;2.58;;;2.20;;
24277;SDS011;12394;42.692;23.314;2023-08-20T09:39:38;2.25;;;2.05;;
24277;SDS011;12394;42.692;23.314;2023-08-20T09:42:05;2.47;;;2.28;;
24277;SDS011;12394;42.692;23.314;2023-08-20T09:44:35;2.45;;;2.25;;
24277;SDS011;12394;42.692;23.314;2023-08-20T09:47:03;2.88;;;2.42;;
24277;SDS011;12394;42.692;23.314;2023-08-20T09:49:31;4.22;;;2.50;;
24277;SDS011;12394;42.692;23.314;2023-08-20T09:52:01;3.70;;;2.35;;
24277;SDS011;12394;42.692;23.314;2023-08-20T09:57:00;2.97;;;2.67;;
24277;SDS011;12394;42.692;23.314;2023-08-20T09:59:27;3.35;;;2.33;;
24277;SDS011;12394;42.692;23.314;2023-08-20T10:01:53;4.13;;;1.90;;
24277;SDS011;12394;42.692;23.314;2023-08-20T10:04:20;3.53;;;2.30;;
24277;SDS011;12394;42.692;23.314;2023-08-20T10:06:46;2.50;;;2.00;;
24277;SDS011;12394;42.692;23.314;2023-08-20T10:09:13;2.13;;;1.98;;
24277;SDS011;12394;42.692;23.314;2023-08-20T10:11:39;2.00;;;1.77;;
24277;SDS011;12394;42.692;23.314;2023-08-20T10:14:05;4.22;;;3.83;;
24277;SDS011;12394;42.692;23.314;2023-08-20T10:16:32;2.20;;;2.00;;
24277;SDS011;12394;42.692;23.314;2023-08-20T10:19:01;2.00;;;1.80;;
24277;SDS011;12394;42.692;23.314;2023-08-20T10:21:31;2.30;;;2.10;;
24277;SDS011;12394;42.692;23.314;2023-08-20T10:23:57;2.72;;;1.95;;
24277;SDS011;12394;42.692;23.314;2023-08-20T10:26:22;1.67;;;1.50;;
24277;SDS011;12394;42.692;23.314;2023-08-20T10:28:49;2.05;;;1.80;;
24277;SDS011;12394;42.692;23.314;2023-08-20T10:31:16;1.90;;;1.80;;
24277;SDS011;12394;42.692;23.314;2023-08-20T10:36:18;2.17;;;1.92;;
24277;SDS011;12394;42.692;23.314;2023-08-20T10:38:53;2.78;;;2.00;;
24277;SDS011;12394;42.692;23.314;2023-08-20T10:41:30;2.17;;;1.98;;
24277;SDS011;12394;42.692;23.314;2023-08-20T10:43:59;2.40;;;2.20;;
24277;SDS011;12394;42.692;23.314;2023-08-20T10:46:26;2.47;;;2.00;;
24277;SDS011;12394;42.692;23.314;2023-08-20T10:49:02;2.10;;;1.85;;
24277;SDS011;12394;42.692;23.314;2023-08-20T10:51:28;1.90;;;1.80;;
24277;SDS011;12394;42.692;23.314;2023-08-20T10:56:37;1.90;;;1.80;;
24277;SDS011;12394;42.692;23.314;2023-08-20T11:01:44;2.17;;;1.83;;
24277;SDS011;12394;42.692;23.314;2023-08-20T11:04:11;2.75;;;2.20;;
24277;SDS011;12394;42.692;23.314;2023-08-20T11:06:37;4.72;;;2.00;;
24277;SDS011;12394;42.692;23.314;2023-08-20T11:09:04;2.10;;;1.95;;
24277;SDS011;12394;42.692;23.314;2023-08-20T11:11:30;1.90;;;1.80;;
24277;SDS011;12394;42.692;23.314;2023-08-20T11:13:56;3.25;;;1.90;;
24277;SDS011;12394;42.692;23.314;2023-08-20T11:16:22;2.30;;;2.10;;
24277;SDS011;12394;42.692;23.314;2023-08-20T11:18:48;2.47;;;2.10;;
24277;SDS011;12394;42.692;23.314;2023-08-20T11:21:13;3.37;;;2.67;;
24277;SDS011;12394;42.692;23.314;2023-08-20T11:23:39;2.70;;;1.97;;
24277;SDS011;12394;42.692;23.314;2023-08-20T11:26:07;2.27;;;1.63;;
24277;SDS011;12394;42.692;23.314;2023-08-20T11:28:33;2.10;;;1.90;;
24277;SDS011;12394;42.692;23.314;2023-08-20T11:30:58;2.27;;;1.83;;
24277;SDS011;12394;42.692;23.314;2023-08-20T11:33:26;2.43;;;2.00;;
24277;SDS011;12394;42.692;23.314;2023-08-20T11:35:52;1.90;;;1.80;;
24277;SDS011;12394;42.692;23.314;2023-08-20T11:38:18;2.77;;;2.17;;
24277;SDS011;12394;42.692;23.314;2023-08-20T11:40:45;2.20;;;2.00;;
24277;SDS011;12394;42.692;23.314;2023-08-20T11:43:11;3.57;;;2.30;;
24277;SDS011;12394;42.692;23.314;2023-08-20T11:45:49;2.47;;;2.00;;
24277;SDS011;12394;42.692;23.314;2023-08-20T11:48:15;2.17;;;1.97;;
24277;SDS011;12394;42.692;23.314;2023-08-20T11:50:41;2.13;;;1.93;;
24277;SDS011;12394;42.692;23.314;2023-08-20T11:53:08;2.57;;;1.90;;
24277;SDS011;12394;42.692;23.314;2023-08-20T11:55:35;2.33;;;2.13;;
24277;SDS011;12394;42.692;23.314;2023-08-20T11:58:00;2.30;;;2.10;;
24277;SDS011;12394;42.692;23.314;2023-08-20T12:00:26;3.33;;;2.30;;
24277;SDS011;12394;42.692;23.314;2023-08-20T12:02:53;2.17;;;2.07;;
24277;SDS011;12394;42.692;23.314;2023-08-20T12:05:26;2.20;;;2.00;;
24277;SDS011;12394;42.692;23.314;2023-08-20T12:07:59;2.50;;;2.30;;
24277;SDS011;12394;42.692;23.314;2023-08-20T12:10:29;2.70;;;2.00;;
24277;SDS011;12394;42.692;23.314;2023-08-20T12:12:57;2.30;;;2.00;;
24277;SDS011;12394;42.692;23.314;2023-08-20T12:15:23;2.07;;;1.87;;
24277;SDS011;12394;42.692;23.314;2023-08-20T12:18:03;3.17;;;2.07;;
24277;SDS011;12394;42.692;23.314;2023-08-20T12:20:30;1.73;;;1.63;;
24277;SDS011;12394;42.692;23.314;2023-08-20T12:23:01;2.40;;;2.20;;
24277;SDS011;12394;42.692;23.314;2023-08-20T12:25:30;2.47;;;2.27;;
24277;SDS011;12394;42.692;23.314;2023-08-20T12:27:57;2.43;;;2.23;;
24277;SDS011;12394;42.692;23.314;2023-08-20T12:30:22;2.87;;;1.90;;
24277;SDS011;12394;42.692;23.314;2023-08-20T12:32:48;2.40;;;2.20;;
24277;SDS011;12394;42.692;23.314;2023-08-20T12:35:13;2.03;;;1.83;;
24277;SDS011;12394;42.692;23.314;2023-08-20T12:37:38;1.70;;;1.60;;
24277;SDS011;12394;42.692;23.314;2023-08-20T12:40:04;2.07;;;1.83;;
24277;SDS011;12394;42.692;23.314;2023-08-20T12:42:35;2.20;;;2.00;;
24277;SDS011;12394;42.692;23.314;2023-08-20T12:45:02;2.30;;;2.03;;
24277;SDS011;12394;42.692;23.314;2023-08-20T12:47:28;2.07;;;1.87;;
24277;SDS011;12394;42.692;23.314;2023-08-20T12:49:53;2.20;;;2.00;;
24277;SDS011;12394;42.692;23.314;2023-08-20T12:52:19;2.57;;;2.10;;
24277;SDS011;12394;42.692;23.314;2023-08-20T12:54:44;2.23;;;2.03;;
24277;SDS011;12394;42.692;23.314;2023-08-20T12:57:10;2.23;;;1.50;;
24277;SDS011;12394;42.692;23.314;2023-08-20T12:59:35;1.97;;;1.77;;
24277;SDS011;12394;42.692;23.314;2023-08-20T13:02:01;2.00;;;1.80;;
24277;SDS011;12394;42.692;23.314;2023-08-20T13:04:27;2.53;;;2.10;;
24277;SDS011;12394;42.692;23.314;2023-08-20T13:06:53;1.93;;;1.80;;
24277;SDS011;12394;42.692;23.314;2023-08-20T13:09:19;2.00;;;1.90;;
24277;SDS011;12394;42.692;23.314;2023-08-20T13:11:44;2.67;;;2.00;;
24277;SDS011;12394;42.692;23.314;2023-08-20T13:14:12;3.03;;;2.50;;
24277;SDS011;12394;42.692;23.314;2023-08-20T13:16:38;2.20;;;2.03;;
24277;SDS011;12394;42.692;23.314;2023-08-20T13:19:04;3.73;;;2.17;;
24277;SDS011;12394;42.692;23.314;2023-08-20T13:21:30;2.80;;;2.40;;
24277;SDS011;12394;42.692;23.314;2023-08-20T13:23:55;3.17;;;2.00;;
24277;SDS011;12394;42.692;23.314;2023-08-20T13:26:21;2.10;;;1.90;;
24277;SDS011;12394;42.692;23.314;2023-08-20T13:28:47;1.93;;;1.73;;
24277;SDS011;12394;42.692;23.314;2023-08-20T13:31:13;3.50;;;1.97;;
24277;SDS011;12394;42.692;23.314;2023-08-20T13:33:39;2.27;;;2.07;;
24277;SDS011;12394;42.692;23.314;2023-08-20T13:36:05;2.30;;;2.07;;
24277;SDS011;12394;42.692;23.314;2023-08-20T13:38:32;2.13;;;1.93;;
24277;SDS011;12394;42.692;23.314;2023-08-20T13:40:57;3.00;;;2.20;;
24277;SDS011;12394;42.692;23.314;2023-08-20T13:43:23;2.67;;;2.27;;
24277;SDS011;12394;42.692;23.314;2023-08-20T13:45:48;2.17;;;1.97;;
24277;SDS011;12394;42.692;23.314;2023-08-20T13:48:14;2.17;;;1.97;;
24277;SDS011;12394;42.692;23.314;2023-08-20T13:50:39;1.83;;;1.70;;
24277;SDS011;12394;42.692;23.314;2023-08-20T13:53:05;2.30;;;2.10;;
24277;SDS011;12394;42.692;23.314;2023-08-20T13:55:30;2.60;;;2.17;;
24277;SDS011;12394;42.692;23.314;2023-08-20T13:57:56;2.30;;;2.00;;
24277;SDS011;12394;42.692;23.314;2023-08-20T14:00:22;2.80;;;2.10;;
24277;SDS011;12394;42.692;23.314;2023-08-20T14:02:47;4.53;;;2.13;;
24277;SDS011;12394;42.692;23.314;2023-08-20T14:05:13;2.23;;;1.90;;
24277;SDS011;12394;42.692;23.314;2023-08-20T14:07:38;2.53;;;2.30;;
24277;SDS011;12394;42.692;23.314;2023-08-20T14:10:04;2.30;;;1.90;;
24277;SDS011;12394;42.692;23.314;2023-08-20T14:12:30;2.70;;;1.70;;
24277;SDS011;12394;42.692;23.314;2023-08-20T14:14:56;1.93;;;1.73;;
24277;SDS011;12394;42.692;23.314;2023-08-20T14:17:21;2.20;;;2.03;;
24277;SDS011;12394;42.692;23.314;2023-08-20T14:19:47;2.20;;;2.00;;
24277;SDS011;12394;42.692;23.314;2023-08-20T14:22:12;2.20;;;2.00;;
24277;SDS011;12394;42.692;23.314;2023-08-20T14:24:38;2.00;;;1.80;;
24277;SDS011;12394;42.692;23.314;2023-08-20T14:27:03;2.53;;;2.33;;
24277;SDS011;12394;42.692;23.314;2023-08-20T14:29:29;2.40;;;1.67;;
24277;SDS011;12394;42.692;23.314;2023-08-20T14:31:54;4.60;;;2.00;;
24277;SDS011;12394;42.692;23.314;2023-08-20T14:34:20;1.73;;;1.63;;
24277;SDS011;12394;42.692;23.314;2023-08-20T14:36:45;2.10;;;1.70;;
24277;SDS011;12394;42.692;23.314;2023-08-20T14:39:10;1.93;;;1.67;;
24277;SDS011;12394;42.692;23.314;2023-08-20T14:41:36;2.33;;;2.13;;
24277;SDS011;12394;42.692;23.314;2023-08-20T14:44:01;2.17;;;1.93;;
24277;SDS011;12394;42.692;23.314;2023-08-20T14:46:27;2.90;;;2.17;;
24277;SDS011;12394;42.692;23.314;2023-08-20T14:48:53;2.30;;;2.10;;
24277;SDS011;12394;42.692;23.314;2023-08-20T14:51:20;2.33;;;1.73;;